Time;durP1;ratioP1;P1;durP2;ratioP2;P2;SDS_P1;SDS_P2;PMS_P1;PMS_P2;Temp;Humidity;BMP_temperature;BMP_pressure;BME280_temperature;BME280_humidity;BME280_pressure;Samples;Min_cycle;Max_cycle;Signal;HPM_P1;HPM_P2
2023/04/05 00:00:33;;;;;;;;;;;;;;;30.16;70.03;100863.69;5080734;27;65814;-42
2023/04/05 00:03:03;;;;;;;;;;;;;;;30.21;70.50;100871.19;5079601;27;69684;-42
2023/04/05 00:05:35;;;;;;;;;;;;;;;30.26;71.34;100869.50;5079683;27;66963;-42
2023/04/05 00:08:12;;;;;;;;;;;;;;;30.28;71.17;100872.84;5081545;27;69802;-42
2023/04/05 00:10:42;;;;;;;;;;;;;;;30.32;70.71;100880.53;5071879;27;66267;-43
2023/04/05 00:13:12;;;;;;;;;;;;;;;30.34;70.90;100889.22;5080881;27;70257;-42
2023/04/05 00:15:42;;;;;;;;;;;;;;;30.35;70.85;100893.63;5078877;27;66170;-44
2023/04/05 00:18:20;;;;;;;;;;;;;;;30.38;71.20;100893.19;5077001;27;69368;-43
2023/04/05 00:20:50;;;;;;;;;;;;;;;30.38;71.39;100894.00;5079602;28;66273;-43
2023/04/05 00:23:21;;;;;;;;;;;;;;;30.42;71.35;100902.50;5080752;28;69620;-49
2023/04/05 00:25:51;;;;;;;;;;;;;;;30.46;71.42;100914.59;5062272;28;66029;-43
2023/04/05 00:28:22;;;;;;;;;;;;;;;30.42;69.33;100916.91;5074916;27;70347;-43
2023/04/05 00:30:52;;;;;;;;;;;;;;;30.41;68.05;100915.22;5080939;27;65435;-43
2023/04/05 00:33:22;;;;;;;;;;;;;;;30.43;67.13;100917.72;5078465;27;69241;-43
2023/04/05 00:35:53;;;;;;;;;;;;;;;30.43;66.46;100920.44;5081132;27;66074;-43
2023/04/05 00:38:23;;;;;;;;;;;;;;;30.45;66.49;100926.44;5076446;27;70540;-43
2023/04/05 00:40:53;;;;;;;;;;;;;;;30.47;65.59;100929.75;5081302;27;65737;-43
2023/04/05 00:43:23;;;;;;;;;;;;;;;30.47;65.64;100936.00;5079999;27;69279;-42
2023/04/05 00:45:55;;;;;;;;;;;;;;;30.50;65.47;100929.31;5076912;27;65627;-43
2023/04/05 00:48:25;;;;;;;;;;;;;;;30.51;65.22;100933.72;5078563;27;70073;-43
2023/04/05 00:50:56;;;;;;;;;;;;;;;30.55;65.18;100937.63;5095081;27;66763;-41
2023/04/05 00:53:27;;;;;;;;;;;;;;;30.56;65.05;100939.28;5071943;27;68884;-43
2023/04/05 00:55:57;;;;;;;;;;;;;;;30.58;64.80;100939.91;5058685;27;66966;-43
2023/04/05 00:58:28;;;;;;;;;;;;;;;30.60;64.56;100945.94;5061388;28;70065;-43
2023/04/05 01:00:58;;;;;;;;;;;;;;;30.61;64.16;100946.75;5058407;28;66738;-43
2023/04/05 01:03:29;;;;;;;;;;;;;;;30.62;64.11;100943.84;5078785;27;70668;-43
2023/04/05 01:06:06;;;;;;;;;;;;;;;30.63;64.01;100947.38;5064896;27;59626;-43
2023/04/05 01:08:48;;;;;;;;;;;;;;;30.64;63.45;100941.75;5079056;27;70324;-43
2023/04/05 01:11:18;;;;;;;;;;;;;;;30.66;63.43;100955.06;5080302;28;66064;-44
2023/04/05 01:13:48;;;;;;;;;;;;;;;30.67;63.79;100960.28;5055087;28;70652;-42
2023/04/05 01:16:18;;;;;;;;;;;;;;;30.69;63.16;100960.06;5079556;27;67012;-42
2023/04/05 01:18:55;;;;;;;;;;;;;;;30.69;63.21;100955.47;5078357;27;70306;-42
2023/04/05 01:21:28;;;;;;;;;;;;;;;30.72;63.46;100962.31;5078053;27;65276;-44
2023/04/05 01:24:14;;;;;;;;;;;;;;;30.73;62.70;100959.41;5093025;27;69773;-43
2023/04/05 01:26:50;;;;;;;;;;;;;;;30.75;62.89;100963.75;5078865;27;66927;-43
2023/04/05 01:29:37;;;;;;;;;;;;;;;30.77;62.97;100959.78;5078762;27;69816;-43
2023/04/05 01:32:24;;;;;;;;;;;;;;;30.79;62.44;100959.59;5078188;27;66757;-43
2023/04/05 01:35:06;;;;;;;;;;;;;;;30.80;62.87;100961.28;5078406;27;68417;-43
2023/04/05 01:37:38;;;;;;;;;;;;;;;30.80;62.49;100962.09;5061801;27;67004;-43
2023/04/05 01:40:09;;;;;;;;;;;;;;;30.84;62.63;100967.91;5076728;27;69763;-43
2023/04/05 01:42:39;;;;;;;;;;;;;;;30.86;62.43;100971.22;5077016;27;66247;-42
2023/04/05 01:45:09;;;;;;;;;;;;;;;30.88;62.43;100971.84;5075848;27;69910;-43
2023/04/05 01:47:40;;;;;;;;;;;;;;;30.90;62.04;100983.31;5074709;27;65020;-44
2023/04/05 01:50:10;;;;;;;;;;;;;;;30.91;62.44;100984.94;5074505;27;68808;-44
2023/04/05 01:52:41;;;;;;;;;;;;;;;30.94;61.88;100981.81;5074552;27;66608;-43
2023/04/05 01:55:11;;;;;;;;;;;;;;;30.96;62.13;100982.44;5075837;27;69951;-42
2023/04/05 01:57:41;;;;;;;;;;;;;;;30.98;61.69;100985.75;5072627;27;66548;-42
2023/04/05 02:00:12;;;;;;;;;;;;;;;31.00;61.72;100994.47;5074139;27;70780;-42
2023/04/05 02:02:42;;;;;;;;;;;;;;;31.03;61.66;100993.19;5075173;27;66367;-43
2023/04/05 02:05:12;;;;;;;;;;;;;;;31.03;61.50;100996.75;5088893;27;68989;-44
2023/04/05 02:07:43;;;;;;;;;;;;;;;31.07;61.51;101003.41;5074364;27;66424;-43
2023/04/05 02:10:13;;;;;;;;;;;;;;;31.09;61.62;100995.88;5076404;27;68761;-43
2023/04/05 02:12:44;;;;;;;;;;;;;;;31.11;61.69;100999.19;5054248;28;65499;-44
2023/04/05 02:15:14;;;;;;;;;;;;;;;31.13;61.68;101005.22;5074746;28;70422;-42
2023/04/05 02:17:44;;;;;;;;;;;;;;;31.18;61.48;100996.44;5057900;28;64777;-43
2023/04/05 02:20:15;;;;;;;;;;;;;;;31.21;61.49;101006.03;5055624;27;69610;-43
2023/04/05 02:22:46;;;;;;;;;;;;;;;31.23;61.22;101001.19;5075934;27;66369;-43
2023/04/05 02:25:16;;;;;;;;;;;;;;;31.25;61.18;101001.81;5074730;27;70390;-42
2023/04/05 02:27:47;;;;;;;;;;;;;;;31.27;60.98;101005.97;5074476;27;66245;-42
2023/04/05 02:30:18;;;;;;;;;;;;;;;31.31;61.08;100998.22;5060015;27;69863;-43
2023/04/05 02:32:49;;;;;;;;;;;;;;;31.32;60.84;100997.19;5075682;28;65739;-43
2023/04/05 02:35:20;;;;;;;;;;;;;;;31.35;60.62;100991.31;5078638;27;69824;-43
2023/04/05 02:37:50;;;;;;;;;;;;;;;31.37;60.57;100992.78;5080342;27;66592;-42
2023/04/05 02:40:21;;;;;;;;;;;;;;;31.41;60.61;100995.06;5051223;28;70824;-46
2023/04/05 02:42:52;;;;;;;;;;;;;;;31.42;60.73;100986.69;5065063;27;66833;-45
2023/04/05 02:45:22;;;;;;;;;;;;;;;31.45;60.51;100980.81;5062054;28;70370;-43
2023/04/05 02:47:54;;;;;;;;;;;;;;;31.46;60.63;100982.50;5058517;27;66131;-42
2023/04/05 02:50:24;;;;;;;;;;;;;;;31.51;60.57;100985.38;5065926;27;69200;-44
2023/04/05 02:52:55;;;;;;;;;;;;;;;31.53;60.38;100982.41;5070444;27;66957;-43
2023/04/05 02:55:29;;;;;;;;;;;;;;;31.55;60.44;100975.72;5086653;27;69483;-43
2023/04/05 02:58:00;;;;;;;;;;;;;;;31.59;60.63;100971.53;5058534;28;65226;-44
2023/04/05 03:00:39;;;;;;;;;;;;;;;31.61;60.35;100980.25;5059384;27;69896;-43
2023/04/05 03:03:10;;;;;;;;;;;;;;;31.64;60.34;100965.41;5074841;27;67432;-42
2023/04/05 03:05:43;;;;;;;;;;;;;;;31.67;60.39;100972.28;5058457;27;70430;-44
2023/04/05 03:08:22;;;;;;;;;;;;;;;31.70;60.28;100971.81;5057668;28;66244;-44
2023/04/05 03:11:02;;;;;;;;;;;;;;;31.72;59.83;100975.16;5062767;27;70590;-42
2023/04/05 03:13:32;;;;;;;;;;;;;;;31.74;60.03;100973.88;5041574;28;66336;-43
2023/04/05 03:16:06;;;;;;;;;;;;;;;31.78;59.77;100974.25;5056621;28;69537;-42
2023/04/05 03:18:41;;;;;;;;;;;;;;;31.80;59.86;100972.16;5058696;27;65738;-42
2023/04/05 03:21:11;;;;;;;;;;;;;;;31.82;59.44;100970.06;5081281;27;70738;-42
2023/04/05 03:23:50;;;;;;;;;;;;;;;31.85;59.81;100972.31;5062600;27;65687;-42
2023/04/05 03:26:26;;;;;;;;;;;;;;;31.88;59.55;100966.44;5060103;27;69520;-42
2023/04/05 03:28:57;;;;;;;;;;;;;;;31.91;59.35;100963.31;5081341;27;66180;-43
2023/04/05 03:31:32;;;;;;;;;;;;;;;31.92;59.36;100964.94;5060431;27;70791;-43
2023/04/05 03:34:06;;;;;;;;;;;;;;;31.96;59.26;100965.34;5061092;27;66010;-42
2023/04/05 03:36:46;;;;;;;;;;;;;;;31.98;59.04;100964.06;5061405;28;70025;-43
2023/04/05 03:39:36;;;;;;;;;;;;;;;31.99;58.94;100957.56;5077156;27;66096;-43
2023/04/05 03:42:06;;;;;;;;;;;;;;;32.02;58.99;100962.53;5079199;27;69968;-51
2023/04/05 03:44:37;;;;;;;;;;;;;;;32.03;58.64;100950.63;5078510;27;66661;-42
2023/04/05 03:47:07;;;;;;;;;;;;;;;32.04;58.70;100955.03;5063899;27;70752;-43
2023/04/05 03:49:40;;;;;;;;;;;;;;;32.08;58.48;100947.25;5061113;28;66547;-43
2023/04/05 03:52:10;;;;;;;;;;;;;;;32.09;58.75;100946.19;5077231;27;69842;-42
2023/04/05 03:54:44;;;;;;;;;;;;;;;32.10;58.51;100944.31;5060892;28;65639;-42
2023/04/05 03:57:19;;;;;;;;;;;;;;;32.13;58.38;100938.44;5059417;28;69997;-43
2023/04/05 03:59:53;;;;;;;;;;;;;;;32.15;58.51;100930.88;5083383;27;65038;-42
2023/04/05 04:02:24;;;;;;;;;;;;;;;32.16;58.30;100937.97;5062075;28;69619;-42
2023/04/05 04:04:54;;;;;;;;;;;;;;;32.18;58.24;100930.41;5079838;27;66593;-42
2023/04/05 04:07:26;;;;;;;;;;;;;;;32.20;58.29;100928.31;5062497;28;70078;-42
2023/04/05 04:09:56;;;;;;;;;;;;;;;32.22;58.00;100921.59;5056578;27;65282;-43
2023/04/05 04:12:26;;;;;;;;;;;;;;;32.23;57.87;100909.69;5057937;27;69696;-42
2023/04/05 04:15:00;;;;;;;;;;;;;;;32.25;58.01;100909.44;5053261;27;66742;-42
2023/04/05 04:17:54;;;;;;;;;;;;;;;32.27;57.93;100907.34;5069400;27;70772;-43
2023/04/05 04:20:32;;;;;;;;;;;;;;;32.28;57.92;100892.72;5080706;27;66328;-43
2023/04/05 04:23:26;;;;;;;;;;;;;;;32.31;57.85;100897.66;5057102;27;69846;-42
2023/04/05 04:26:04;;;;;;;;;;;;;;;32.32;57.79;100896.63;5079520;27;66563;-43
2023/04/05 04:28:54;;;;;;;;;;;;;;;32.35;57.95;100882.59;5061727;28;70627;-44
2023/04/05 04:31:38;;;;;;;;;;;;;;;32.37;57.81;100885.88;5080014;27;66847;-43
2023/04/05 04:34:43;;;;;;;;;;;;;;;32.40;57.85;100881.88;5071418;27;69806;-44
2023/04/05 04:37:36;;;;;;;;;;;;;;;32.41;57.77;100862.66;5077688;27;67082;-43
2023/04/05 04:40:39;;;;;;;;;;;;;;;32.44;57.49;100869.53;5078271;27;70459;-43
2023/04/05 04:43:27;;;;;;;;;;;;;;;32.46;57.42;100862.84;5078521;27;65877;-44
2023/04/05 04:46:29;;;;;;;;;;;;;;;32.49;57.37;100854.22;5051231;27;69794;-42
2023/04/05 04:49:12;;;;;;;;;;;;;;;32.52;57.55;100849.41;5091526;27;65516;-42
2023/04/05 04:51:46;;;;;;;;;;;;;;;32.55;57.51;100838.06;5077983;27;69436;-45
2023/04/05 04:54:20;;;;;;;;;;;;;;;32.57;57.40;100844.06;5058812;28;67003;-43
2023/04/05 04:56:50;;;;;;;;;;;;;;;32.59;57.27;100833.81;5093025;27;69803;-43
2023/04/05 04:59:21;;;;;;;;;;;;;;;32.60;57.41;100830.88;5075129;27;66232;-43
2023/04/05 05:01:51;;;;;;;;;;;;;;;32.63;57.25;100830.41;5074790;27;70313;-43
2023/04/05 05:04:22;;;;;;;;;;;;;;;32.64;57.23;100825.78;5075182;27;66495;-43
2023/04/05 05:06:53;;;;;;;;;;;;;;;32.68;57.02;100821.53;5076724;27;71167;-43
2023/04/05 05:09:23;;;;;;;;;;;;;;;32.70;56.93;100814.00;5054990;28;66817;-43
2023/04/05 05:12:00;;;;;;;;;;;;;;;32.71;56.64;100813.78;5077446;27;70398;-43
2023/04/05 05:14:30;;;;;;;;;;;;;;;32.74;57.00;100798.06;5075199;27;65174;-42
2023/04/05 05:17:00;;;;;;;;;;;;;;;32.75;56.88;100789.66;5074038;27;71178;-43
2023/04/05 05:19:31;;;;;;;;;;;;;;;32.77;56.92;100790.28;5078946;27;66912;-42
2023/04/05 05:22:01;;;;;;;;;;;;;;;32.81;57.07;100783.28;5079463;27;69863;-44
2023/04/05 05:24:31;;;;;;;;;;;;;;;32.83;56.64;100783.88;5056082;27;66478;-44
2023/04/05 05:27:02;;;;;;;;;;;;;;;32.84;56.76;100776.56;5076065;27;69381;-43
2023/04/05 05:29:32;;;;;;;;;;;;;;;32.88;56.66;100773.16;5076560;27;66156;-43
2023/04/05 05:32:02;;;;;;;;;;;;;;;32.88;56.61;100756.84;5075496;27;68794;-42
2023/04/05 05:34:33;;;;;;;;;;;;;;;32.92;56.58;100752.56;5075332;27;65701;-43
2023/04/05 05:37:04;;;;;;;;;;;;;;;32.94;56.50;100745.03;5069724;27;69928;-43
2023/04/05 05:39:37;;;;;;;;;;;;;;;32.96;56.34;100747.50;5076883;27;66842;-43
2023/04/05 05:42:08;;;;;;;;;;;;;;;32.98;56.30;100739.94;5075087;27;70036;-42
2023/04/05 05:44:38;;;;;;;;;;;;;;;33.00;56.26;100724.25;5076399;27;66499;-43
2023/04/05 05:47:08;;;;;;;;;;;;;;;33.03;56.21;100721.06;5076737;27;70294;-43
2023/04/05 05:49:38;;;;;;;;;;;;;;;33.05;56.20;100713.50;5058287;28;65333;-45
2023/04/05 05:52:09;;;;;;;;;;;;;;;33.08;56.15;100717.63;5069370;27;69823;-43
2023/04/05 05:54:39;;;;;;;;;;;;;;;33.11;56.05;100711.72;5075835;27;66029;-43
2023/04/05 05:57:10;;;;;;;;;;;;;;;33.11;55.83;100701.66;5076652;27;71807;-42
2023/04/05 05:59:41;;;;;;;;;;;;;;;33.15;55.86;100691.13;5075931;27;66711;-43
2023/04/05 06:02:11;;;;;;;;;;;;;;;33.18;55.84;100690.66;5077294;27;69512;-42
2023/04/05 06:04:42;;;;;;;;;;;;;;;33.21;55.71;100684.75;5068942;27;66850;-43
2023/04/05 06:07:34;;;;;;;;;;;;;;;33.24;55.52;100681.53;5075964;27;70644;-43
2023/04/05 06:10:05;;;;;;;;;;;;;;;33.26;55.63;100671.25;5060199;28;65812;-43
2023/04/05 06:12:35;;;;;;;;;;;;;;;33.29;55.57;100669.94;5077603;27;70780;-46
2023/04/05 06:15:06;;;;;;;;;;;;;;;33.31;55.24;100668.63;5078249;27;67100;-43
2023/04/05 06:17:41;;;;;;;;;;;;;;;33.34;55.34;100673.56;5076726;27;70450;-42
2023/04/05 06:20:12;;;;;;;;;;;;;;;33.36;55.35;100666.00;5073724;27;66236;-46
2023/04/05 06:22:43;;;;;;;;;;;;;;;33.40;55.52;100654.66;5068379;28;69867;-43
2023/04/05 06:25:13;;;;;;;;;;;;;;;33.42;55.17;100647.06;5076729;27;65778;-43
2023/04/05 06:27:45;;;;;;;;;;;;;;;33.44;55.05;100640.34;5077803;27;70181;-43
2023/04/05 06:30:15;;;;;;;;;;;;;;;33.48;55.05;100630.59;5075717;27;66171;-43
2023/04/05 06:32:47;;;;;;;;;;;;;;;33.52;54.83;100630.97;5073098;27;70583;-43
2023/04/05 06:35:17;;;;;;;;;;;;;;;33.55;54.93;100625.06;5075387;27;66168;-43
2023/04/05 06:37:47;;;;;;;;;;;;;;;33.58;54.97;100619.13;5076350;27;70218;-44
2023/04/05 06:40:18;;;;;;;;;;;;;;;33.61;54.82;100618.63;5076773;27;66562;-43
2023/04/05 06:42:48;;;;;;;;;;;;;;;33.65;54.90;100614.34;5087224;27;69501;-43
2023/04/05 06:45:23;;;;;;;;;;;;;;;33.70;54.87;100608.19;5052104;27;65870;-44
2023/04/05 06:47:53;;;;;;;;;;;;;;;33.74;54.73;100602.00;5055260;28;69520;-42
2023/04/05 06:50:23;;;;;;;;;;;;;;;33.77;54.47;100593.34;5075631;27;66683;-44
2023/04/05 06:52:53;;;;;;;;;;;;;;;33.81;54.41;100591.75;5077206;27;70106;-44
2023/04/05 06:55:24;;;;;;;;;;;;;;;33.86;54.03;100587.50;5078415;27;66825;-44
2023/04/05 06:57:55;;;;;;;;;;;;;;;33.90;54.21;100589.44;5071237;27;70102;-44
2023/04/05 07:00:25;;;;;;;;;;;;;;;33.94;54.44;100584.34;5077225;27;66039;-43
2023/04/05 07:02:55;;;;;;;;;;;;;;;33.98;54.35;100580.88;5080387;27;69840;-44
2023/04/05 07:05:25;;;;;;;;;;;;;;;34.02;54.07;100575.78;5080847;27;66056;-43
2023/04/05 07:07:55;;;;;;;;;;;;;;;34.05;54.27;100569.88;5079551;27;69536;-44
2023/04/05 07:10:26;;;;;;;;;;;;;;;34.10;53.99;100566.38;5080660;27;66910;-44
2023/04/05 07:12:56;;;;;;;;;;;;;;;34.15;53.51;100558.28;5080312;27;69694;-42
2023/04/05 07:15:27;;;;;;;;;;;;;;;34.19;53.62;100549.38;5079152;27;65663;-45
2023/04/05 07:17:57;;;;;;;;;;;;;;;34.24;53.57;100554.91;5082569;27;70281;-43
2023/04/05 07:20:27;;;;;;;;;;;;;;;34.28;53.20;100546.22;5079624;27;65376;-43
2023/04/05 07:22:58;;;;;;;;;;;;;;;34.33;52.99;100543.59;5078670;27;70023;-43
2023/04/05 07:25:28;;;;;;;;;;;;;;;34.38;53.13;100538.19;5055186;27;65388;-42
2023/04/05 07:27:58;;;;;;;;;;;;;;;34.41;53.12;100540.41;5081641;27;70568;-43
2023/04/05 07:30:30;;;;;;;;;;;;;;;34.44;53.11;100537.19;5078999;27;66014;-43
2023/04/05 07:33:01;;;;;;;;;;;;;;;34.50;52.97;100528.00;5078267;27;70567;-43
2023/04/05 07:35:31;;;;;;;;;;;;;;;34.53;52.78;100524.75;5080173;27;67245;-44
2023/04/05 07:38:01;;;;;;;;;;;;;;;34.58;52.83;100533.03;5090963;27;69790;-43
2023/04/05 07:40:32;;;;;;;;;;;;;;;34.63;52.37;100527.66;5074076;27;66631;-44
2023/04/05 07:43:02;;;;;;;;;;;;;;;34.66;52.47;100523.59;5080308;27;69594;-45
2023/04/05 07:45:32;;;;;;;;;;;;;;;34.68;52.28;100519.50;5071860;27;65666;-43
2023/04/05 07:48:02;;;;;;;;;;;;;;;34.73;51.94;100517.94;5079418;27;69081;-43
2023/04/05 07:50:33;;;;;;;;;;;;;;;34.78;51.80;100515.28;5079037;27;66935;-43
2023/04/05 07:53:03;;;;;;;;;;;;;;;34.81;51.64;100517.50;5090580;27;69886;-44
2023/04/05 07:55:36;;;;;;;;;;;;;;;34.84;51.64;100519.69;5077248;27;66412;-44
2023/04/05 07:58:07;;;;;;;;;;;;;;;34.87;51.51;100516.47;5091390;27;70082;-42
2023/04/05 08:00:37;;;;;;;;;;;;;;;34.89;51.21;100511.59;5076441;27;66376;-43
2023/04/05 08:03:07;;;;;;;;;;;;;;;34.90;51.50;100516.75;5077200;27;70729;-43
2023/04/05 08:05:38;;;;;;;;;;;;;;;34.95;50.95;100507.00;5078357;27;66093;-44
2023/04/05 08:08:09;;;;;;;;;;;;;;;34.98;51.14;100518.22;5073966;27;69606;-44
2023/04/05 08:10:40;;;;;;;;;;;;;;;34.99;50.61;100514.38;5075405;27;67083;-43
2023/04/05 08:13:11;;;;;;;;;;;;;;;35.02;50.62;100516.63;5078713;27;70079;-43
2023/04/05 08:15:41;;;;;;;;;;;;;;;35.05;50.90;100502.47;5078364;27;65954;-43
2023/04/05 08:18:11;;;;;;;;;;;;;;;35.08;50.52;100509.34;5078766;27;70054;-44
2023/04/05 08:20:41;;;;;;;;;;;;;;;35.10;50.15;100502.56;5057421;28;66270;-42
2023/04/05 08:23:11;;;;;;;;;;;;;;;35.13;50.11;100503.94;5053949;27;70429;-44
2023/04/05 08:25:43;;;;;;;;;;;;;;;35.18;50.57;100511.34;5076050;27;66275;-44
2023/04/05 08:28:14;;;;;;;;;;;;;;;35.19;50.42;100496.63;5058914;28;70183;-44
2023/04/05 08:30:47;;;;;;;;;;;;;;;35.21;50.17;100494.47;5079619;27;66504;-44
2023/04/05 08:33:18;;;;;;;;;;;;;;;35.22;50.17;100488.75;5079803;27;70015;-50
2023/04/05 08:35:48;;;;;;;;;;;;;;;35.24;50.09;100483.84;5072987;27;66493;-43
2023/04/05 08:38:18;;;;;;;;;;;;;;;35.25;49.87;100482.78;5078175;27;70262;-43
2023/04/05 08:40:48;;;;;;;;;;;;;;;35.29;49.27;100488.53;5061104;27;66861;-43
2023/04/05 08:43:25;;;;;;;;;;;;;;;35.30;49.66;100482.00;5075284;27;69869;-43
2023/04/05 08:45:57;;;;;;;;;;;;;;;35.32;49.21;100474.38;5077707;27;66408;-43
2023/04/05 08:48:31;;;;;;;;;;;;;;;35.34;48.73;100477.66;5079253;27;69818;-43
2023/04/05 08:51:01;;;;;;;;;;;;;;;35.35;49.25;100471.13;5062358;28;66149;-43
2023/04/05 08:53:32;;;;;;;;;;;;;;;35.36;49.17;100464.59;5079179;27;70460;-43
2023/04/05 08:56:03;;;;;;;;;;;;;;;35.21;49.08;100431.75;5073272;27;66008;-42
2023/04/05 08:58:34;;;;;;;;;;;;;;;35.41;48.98;100455.63;5078217;27;70675;-43
2023/04/05 09:01:05;;;;;;;;;;;;;;;35.42;48.56;100449.91;5079501;27;65635;-43
2023/04/05 09:03:37;;;;;;;;;;;;;;;35.44;48.88;100455.94;5077049;27;71375;-44
2023/04/05 09:06:08;;;;;;;;;;;;;;;35.47;48.34;100457.31;5076758;27;66398;-43
2023/04/05 09:08:39;;;;;;;;;;;;;;;35.48;48.71;100457.03;5077071;27;69150;-43
2023/04/05 09:11:10;;;;;;;;;;;;;;;35.49;48.75;100447.78;5073326;28;66540;-43
2023/04/05 09:13:41;;;;;;;;;;;;;;;35.49;48.19;100436.84;5092190;27;69805;-43
2023/04/05 09:16:16;;;;;;;;;;;;;;;35.50;48.81;100441.25;5078216;27;66652;-43
2023/04/05 09:18:48;;;;;;;;;;;;;;;35.49;48.68;100445.03;5075823;27;70349;-43
2023/04/05 09:21:19;;;;;;;;;;;;;;;35.52;48.20;100439.09;5077357;27;66685;-43
2023/04/05 09:23:53;;;;;;;;;;;;;;;35.53;47.97;100448.91;5075566;27;68786;-43
2023/04/05 09:26:25;;;;;;;;;;;;;;;35.54;48.65;100450.53;5061461;28;66653;-44
2023/04/05 09:28:59;;;;;;;;;;;;;;;35.54;48.02;100450.53;5058200;28;70691;-43
2023/04/05 09:31:33;;;;;;;;;;;;;;;35.56;48.52;100453.88;5071123;27;65752;-42
2023/04/05 09:34:19;;;;;;;;;;;;;;;35.55;48.70;100456.81;5059781;28;69270;-43
2023/04/05 09:36:50;;;;;;;;;;;;;;;35.56;48.56;100455.78;5073967;27;65209;-42
2023/04/05 09:39:26;;;;;;;;;;;;;;;35.56;48.10;100464.78;5094811;27;70389;-44
2023/04/05 09:42:06;;;;;;;;;;;;;;;35.54;48.57;100466.91;5074849;27;66391;-43
2023/04/05 09:44:55;;;;;;;;;;;;;;;35.53;48.13;100470.72;5074106;27;69756;-44
2023/04/05 09:47:29;;;;;;;;;;;;;;;35.52;48.58;100468.25;5045696;28;65889;-43
2023/04/05 09:50:23;;;;;;;;;;;;;;;35.49;48.70;100474.22;5058839;28;70615;-43
2023/04/05 09:53:15;;;;;;;;;;;;;;;35.48;48.13;100470.69;5072809;27;66457;-43
2023/04/05 09:55:48;;;;;;;;;;;;;;;35.45;48.87;100473.94;5077105;27;69839;-43
2023/04/05 09:58:18;;;;;;;;;;;;;;;35.43;48.83;100467.09;5076140;27;67294;-43
2023/04/05 10:00:54;;;;;;;;;;;;;;;35.38;48.42;100470.59;5076523;27;70399;-44
2023/04/05 10:03:47;;;;;;;;;;;;;;;35.36;48.71;100464.59;5056024;28;65800;-43
2023/04/05 10:06:17;;;;;;;;;;;;;;;35.33;48.53;100465.94;5089006;27;69994;-43
2023/04/05 10:08:49;;;;;;;;;;;;;;;35.32;48.47;100471.66;5072951;27;66100;-43
2023/04/05 10:11:20;;;;;;;;;;;;;;;35.31;49.13;100461.84;5089035;27;69541;-44
2023/04/05 10:13:50;;;;;;;;;;;;;;;35.27;48.71;100474.34;5074130;27;66453;-44
2023/04/05 10:16:22;;;;;;;;;;;;;;;35.26;49.29;100476.25;5071954;27;69255;-43
2023/04/05 10:18:53;;;;;;;;;;;;;;;35.23;49.41;100475.94;5087040;27;66314;-43
2023/04/05 10:21:27;;;;;;;;;;;;;;;35.22;49.46;100474.31;5074989;27;69619;-45
2023/04/05 10:24:18;;;;;;;;;;;;;;;35.19;49.67;100475.66;5073554;27;65453;-44
2023/04/05 10:26:59;;;;;;;;;;;;;;;35.16;49.80;100469.88;5085941;27;70121;-44
2023/04/05 10:29:35;;;;;;;;;;;;;;;35.14;49.46;100473.69;5073520;27;65128;-44
2023/04/05 10:32:10;;;;;;;;;;;;;;;35.13;50.00;100482.97;5076730;28;69784;-43
2023/04/05 10:34:55;;;;;;;;;;;;;;;35.10;49.48;100480.75;5077495;28;66559;-46
2023/04/05 10:37:44;;;;;;;;;;;;;;;35.05;49.97;100480.69;5078211;27;70066;-45
2023/04/05 10:40:16;;;;;;;;;;;;;;;34.83;51.14;100493.53;5079300;27;66491;-42
2023/04/05 10:42:47;;;;;;;;;;;;;;;34.67;51.49;100500.72;5079123;27;69167;-42
2023/04/05 10:45:21;;;;;;;;;;;;;;;34.48;52.23;100503.72;5077521;27;66939;-45
2023/04/05 10:47:54;;;;;;;;;;;;;;;34.36;52.51;100504.94;5078958;27;68949;-46
2023/04/05 10:50:24;;;;;;;;;;;;;;;34.30;53.04;100517.69;5081739;27;66982;-44
2023/04/05 10:52:56;;;;;;;;;;;;;;;34.29;53.07;100516.00;5081768;27;69413;-43
2023/04/05 10:55:26;;;;;;;;;;;;;;;34.24;53.22;100524.94;5082119;27;65691;-43
2023/04/05 10:57:57;;;;;;;;;;;;;;;34.24;53.63;100532.28;5081089;27;70577;-43
2023/04/05 11:00:28;;;;;;;;;;;;;;;34.13;53.86;100531.34;5081236;27;66606;-43
2023/04/05 11:02:58;;;;;;;;;;;;;;;34.07;54.25;100540.47;5059961;27;69842;-43
2023/04/05 11:05:30;;;;;;;;;;;;;;;33.86;54.54;100487.66;5079110;27;66013;-43
2023/04/05 11:08:07;;;;;;;;;;;;;;;34.01;55.45;100530.56;5079006;27;70358;-44
2023/04/05 11:10:38;;;;;;;;;;;;;;;34.05;55.72;100537.22;5079438;27;66516;-43
2023/04/05 11:13:09;;;;;;;;;;;;;;;34.05;55.78;100550.81;5076139;27;69916;-43
2023/04/05 11:15:40;;;;;;;;;;;;;;;34.04;56.09;100562.72;5081370;27;66537;-44
2023/04/05 11:18:16;;;;;;;;;;;;;;;34.11;55.99;100579.75;5082180;27;70145;-44
2023/04/05 11:20:50;;;;;;;;;;;;;;;34.05;56.47;100580.75;5081091;27;65867;-43
2023/04/05 11:23:21;;;;;;;;;;;;;;;34.04;56.75;100579.06;5081549;27;67982;-44
2023/04/05 11:25:53;;;;;;;;;;;;;;;34.01;57.03;100574.13;5080756;27;64749;-43
2023/04/05 11:28:24;;;;;;;;;;;;;;;34.00;57.87;100588.81;5082300;27;69126;-46
2023/04/05 11:30:57;;;;;;;;;;;;;;;34.05;58.12;100602.53;5084248;27;66341;-44
2023/04/05 11:33:37;;;;;;;;;;;;;;;34.01;58.37;100604.03;5096341;27;69539;-44
2023/04/05 11:36:08;;;;;;;;;;;;;;;34.01;58.25;100606.78;5080246;27;67042;-43
2023/04/05 11:38:41;;;;;;;;;;;;;;;33.96;58.61;100609.41;5070426;27;69780;-42
2023/04/05 11:41:16;;;;;;;;;;;;;;;33.98;58.24;100618.16;5076700;27;66141;-43
2023/04/05 11:43:47;;;;;;;;;;;;;;;34.05;58.13;100623.47;5079732;27;69837;-45
2023/04/05 11:46:20;;;;;;;;;;;;;;;34.08;57.96;100620.25;5081480;27;66309;-44
2023/04/05 11:48:50;;;;;;;;;;;;;;;34.10;57.93;100624.38;5061910;27;70440;-44
2023/04/05 11:51:23;;;;;;;;;;;;;;;34.11;57.64;100628.75;5077567;27;64765;-44
2023/04/05 11:53:53;;;;;;;;;;;;;;;34.12;57.28;100630.38;5061714;28;70711;-44
2023/04/05 11:56:23;;;;;;;;;;;;;;;34.12;57.87;100638.53;5061350;28;65527;-44
2023/04/05 11:59:02;;;;;;;;;;;;;;;34.12;57.85;100640.44;5077563;27;70520;-43
2023/04/05 12:01:32;;;;;;;;;;;;;;;34.12;57.74;100641.28;5080761;27;65780;-43
2023/04/05 12:04:06;;;;;;;;;;;;;;;34.10;57.55;100654.31;5050932;28;70797;-44
2023/04/05 12:06:37;;;;;;;;;;;;;;;34.10;57.64;100654.31;5077701;27;66198;-41
2023/04/05 12:09:07;;;;;;;;;;;;;;;34.09;57.68;100663.53;5094699;27;70395;-43
2023/04/05 12:11:39;;;;;;;;;;;;;;;34.07;57.69;100660.25;5080177;27;66460;-43
2023/04/05 12:14:10;;;;;;;;;;;;;;;34.07;57.52;100653.97;5094570;27;70382;-44
2023/04/05 12:16:47;;;;;;;;;;;;;;;34.05;57.47;100659.69;5078451;28;66584;-43
2023/04/05 12:19:21;;;;;;;;;;;;;;;34.03;58.03;100665.31;5078431;27;69851;-43
2023/04/05 12:21:51;;;;;;;;;;;;;;;34.00;57.87;100668.53;5079627;27;66785;-44
2023/04/05 12:24:21;;;;;;;;;;;;;;;33.99;57.87;100669.63;5081407;27;70021;-45
2023/04/05 12:26:51;;;;;;;;;;;;;;;33.98;57.79;100683.47;5060306;27;66027;-44
2023/04/05 12:29:26;;;;;;;;;;;;;;;33.97;58.20;100676.38;5078644;27;70817;-44
2023/04/05 12:31:57;;;;;;;;;;;;;;;33.97;57.75;100687.28;5081143;27;66205;-44
2023/04/05 12:34:27;;;;;;;;;;;;;;;33.94;58.04;100693.22;5076672;27;70363;-44
2023/04/05 12:36:59;;;;;;;;;;;;;;;33.94;57.97;100693.22;5082015;27;66323;-45
2023/04/05 12:39:32;;;;;;;;;;;;;;;33.91;57.75;100696.44;5080755;27;70601;-44
2023/04/05 12:42:03;;;;;;;;;;;;;;;33.90;57.94;100697.47;5080429;27;66570;-43
2023/04/05 12:44:34;;;;;;;;;;;;;;;33.88;58.10;100702.34;5081167;27;70572;-44
2023/04/05 12:47:09;;;;;;;;;;;;;;;33.86;58.29;100707.22;5080072;27;65526;-44
2023/04/05 12:49:40;;;;;;;;;;;;;;;33.85;57.97;100708.25;5078979;27;70816;-43
2023/04/05 12:52:10;;;;;;;;;;;;;;;33.83;57.90;100711.25;5079608;27;65773;-43
2023/04/05 12:54:40;;;;;;;;;;;;;;;33.77;59.20;100715.78;5080326;27;70413;-45
2023/04/05 12:57:13;;;;;;;;;;;;;;;33.65;60.11;100730.47;5063012;28;66084;-45
2023/04/05 12:59:43;;;;;;;;;;;;;;;33.57;61.03;100732.53;5072367;27;69420;-44
2023/04/05 13:02:13;;;;;;;;;;;;;;;33.42;61.82;100747.69;5080807;27;66465;-45
2023/04/05 13:04:43;;;;;;;;;;;;;;;33.35;62.01;100739.69;5081121;27;69288;-43